sensor_id;sensor_type;location;lat;lon;timestamp;P1;durP1;ratioP1;P2;durP2;ratioP2
24407;SDS011;12542;50.924;4.516;2023-07-29T00:01:55;1.92;;;0.85;;
24407;SDS011;12542;50.924;4.516;2023-07-29T00:04:21;2.22;;;1.00;;
24407;SDS011;12542;50.924;4.516;2023-07-29T00:06:47;2.15;;;1.10;;
24407;SDS011;12542;50.924;4.516;2023-07-29T00:09:12;1.92;;;1.10;;
24407;SDS011;12542;50.924;4.516;2023-07-29T00:11:38;3.55;;;1.27;;
24407;SDS011;12542;50.924;4.516;2023-07-29T00:14:04;2.40;;;0.90;;
24407;SDS011;12542;50.924;4.516;2023-07-29T00:16:29;4.63;;;1.15;;
24407;SDS011;12542;50.924;4.516;2023-07-29T00:18:55;3.75;;;1.55;;
24407;SDS011;12542;50.924;4.516;2023-07-29T00:21:21;2.95;;;0.90;;
24407;SDS011;12542;50.924;4.516;2023-07-29T00:23:46;3.25;;;0.85;;
24407;SDS011;12542;50.924;4.516;2023-07-29T00:26:12;1.85;;;0.90;;
24407;SDS011;12542;50.924;4.516;2023-07-29T00:28:38;2.83;;;0.82;;
24407;SDS011;12542;50.924;4.516;2023-07-29T00:31:03;3.80;;;0.70;;
24407;SDS011;12542;50.924;4.516;2023-07-29T00:33:29;3.70;;;0.80;;
24407;SDS011;12542;50.924;4.516;2023-07-29T00:35:55;2.03;;;0.88;;
24407;SDS011;12542;50.924;4.516;2023-07-29T00:38:20;2.05;;;0.95;;
24407;SDS011;12542;50.924;4.516;2023-07-29T00:40:46;2.72;;;0.90;;
24407;SDS011;12542;50.924;4.516;2023-07-29T00:43:12;2.80;;;1.30;;
24407;SDS011;12542;50.924;4.516;2023-07-29T00:45:37;1.85;;;0.90;;
24407;SDS011;12542;50.924;4.516;2023-07-29T00:48:03;2.47;;;0.90;;
24407;SDS011;12542;50.924;4.516;2023-07-29T00:50:30;1.30;;;0.90;;
24407;SDS011;12542;50.924;4.516;2023-07-29T00:52:59;1.90;;;0.80;;
24407;SDS011;12542;50.924;4.516;2023-07-29T00:55:25;3.70;;;0.90;;
24407;SDS011;12542;50.924;4.516;2023-07-29T00:57:51;1.77;;;1.05;;
24407;SDS011;12542;50.924;4.516;2023-07-29T01:00:19;4.38;;;0.98;;
24407;SDS011;12542;50.924;4.516;2023-07-29T01:02:46;5.05;;;1.17;;
24407;SDS011;12542;50.924;4.516;2023-07-29T01:05:13;1.77;;;0.95;;
24407;SDS011;12542;50.924;4.516;2023-07-29T01:08:03;2.65;;;1.00;;
24407;SDS011;12542;50.924;4.516;2023-07-29T01:13:11;1.13;;;0.80;;
24407;SDS011;12542;50.924;4.516;2023-07-29T01:15:55;1.77;;;0.90;;
24407;SDS011;12542;50.924;4.516;2023-07-29T01:20:53;1.73;;;0.90;;
24407;SDS011;12542;50.924;4.516;2023-07-29T01:23:24;2.67;;;0.90;;
24407;SDS011;12542;50.924;4.516;2023-07-29T01:25:51;2.22;;;0.98;;
24407;SDS011;12542;50.924;4.516;2023-07-29T01:28:16;5.70;;;1.15;;
24407;SDS011;12542;50.924;4.516;2023-07-29T01:30:42;3.60;;;1.20;;
24407;SDS011;12542;50.924;4.516;2023-07-29T01:33:12;3.53;;;1.00;;
24407;SDS011;12542;50.924;4.516;2023-07-29T01:35:46;5.38;;;1.83;;
24407;SDS011;12542;50.924;4.516;2023-07-29T01:40:46;2.47;;;1.10;;
24407;SDS011;12542;50.924;4.516;2023-07-29T01:43:13;5.93;;;1.15;;
24407;SDS011;12542;50.924;4.516;2023-07-29T01:45:39;5.03;;;1.20;;
24407;SDS011;12542;50.924;4.516;2023-07-29T01:48:05;1.80;;;1.10;;
24407;SDS011;12542;50.924;4.516;2023-07-29T01:50:32;4.63;;;0.95;;
24407;SDS011;12542;50.924;4.516;2023-07-29T01:52:59;2.33;;;0.95;;
24407;SDS011;12542;50.924;4.516;2023-07-29T01:55:24;10.35;;;2.03;;
24407;SDS011;12542;50.924;4.516;2023-07-29T01:57:50;4.47;;;0.93;;
24407;SDS011;12542;50.924;4.516;2023-07-29T02:00:17;2.08;;;0.90;;
24407;SDS011;12542;50.924;4.516;2023-07-29T02:02:44;1.65;;;0.85;;
24407;SDS011;12542;50.924;4.516;2023-07-29T02:05:09;1.73;;;0.95;;
24407;SDS011;12542;50.924;4.516;2023-07-29T02:07:35;5.55;;;1.10;;
24407;SDS011;12542;50.924;4.516;2023-07-29T02:10:01;3.00;;;1.08;;
24407;SDS011;12542;50.924;4.516;2023-07-29T02:12:27;1.75;;;0.98;;
24407;SDS011;12542;50.924;4.516;2023-07-29T02:14:53;3.92;;;1.10;;
24407;SDS011;12542;50.924;4.516;2023-07-29T02:17:18;2.95;;;1.30;;
24407;SDS011;12542;50.924;4.516;2023-07-29T02:19:44;3.08;;;1.50;;
24407;SDS011;12542;50.924;4.516;2023-07-29T02:22:12;3.10;;;1.10;;
24407;SDS011;12542;50.924;4.516;2023-07-29T02:24:41;2.90;;;1.13;;
24407;SDS011;12542;50.924;4.516;2023-07-29T02:27:07;1.88;;;1.27;;
24407;SDS011;12542;50.924;4.516;2023-07-29T02:29:33;2.38;;;1.27;;
24407;SDS011;12542;50.924;4.516;2023-07-29T02:32:01;4.30;;;1.20;;
24407;SDS011;12542;50.924;4.516;2023-07-29T02:34:28;3.88;;;1.27;;
24407;SDS011;12542;50.924;4.516;2023-07-29T02:36:54;1.67;;;1.00;;
24407;SDS011;12542;50.924;4.516;2023-07-29T02:39:20;3.33;;;1.45;;
24407;SDS011;12542;50.924;4.516;2023-07-29T02:41:46;3.15;;;1.10;;
24407;SDS011;12542;50.924;4.516;2023-07-29T02:44:11;3.55;;;1.30;;
24407;SDS011;12542;50.924;4.516;2023-07-29T02:46:37;3.95;;;1.50;;
24407;SDS011;12542;50.924;4.516;2023-07-29T02:49:03;3.75;;;1.05;;
24407;SDS011;12542;50.924;4.516;2023-07-29T02:51:31;2.10;;;1.25;;
24407;SDS011;12542;50.924;4.516;2023-07-29T02:53:57;4.07;;;1.35;;
24407;SDS011;12542;50.924;4.516;2023-07-29T02:56:23;2.88;;;1.42;;
24407;SDS011;12542;50.924;4.516;2023-07-29T02:58:51;2.30;;;1.10;;
24407;SDS011;12542;50.924;4.516;2023-07-29T03:01:17;2.70;;;1.25;;
24407;SDS011;12542;50.924;4.516;2023-07-29T03:03:43;6.00;;;1.65;;
24407;SDS011;12542;50.924;4.516;2023-07-29T03:06:10;1.92;;;1.17;;
24407;SDS011;12542;50.924;4.516;2023-07-29T03:08:38;1.90;;;1.10;;
24407;SDS011;12542;50.924;4.516;2023-07-29T03:11:14;4.60;;;1.25;;
24407;SDS011;12542;50.924;4.516;2023-07-29T03:13:40;1.85;;;1.02;;
24407;SDS011;12542;50.924;4.516;2023-07-29T03:18:42;1.85;;;1.02;;
24407;SDS011;12542;50.924;4.516;2023-07-29T03:21:09;2.70;;;1.10;;
24407;SDS011;12542;50.924;4.516;2023-07-29T03:23:35;2.30;;;1.05;;
24407;SDS011;12542;50.924;4.516;2023-07-29T03:26:02;2.45;;;1.15;;
24407;SDS011;12542;50.924;4.516;2023-07-29T03:28:35;2.55;;;1.05;;
24407;SDS011;12542;50.924;4.516;2023-07-29T03:31:01;3.13;;;1.10;;
24407;SDS011;12542;50.924;4.516;2023-07-29T03:33:28;4.28;;;1.20;;
24407;SDS011;12542;50.924;4.516;2023-07-29T03:35:53;3.10;;;1.17;;
24407;SDS011;12542;50.924;4.516;2023-07-29T03:38:19;6.53;;;2.55;;
24407;SDS011;12542;50.924;4.516;2023-07-29T03:40:45;4.25;;;1.17;;
24407;SDS011;12542;50.924;4.516;2023-07-29T03:43:13;3.85;;;1.00;;
24407;SDS011;12542;50.924;4.516;2023-07-29T03:45:39;2.55;;;0.93;;
24407;SDS011;12542;50.924;4.516;2023-07-29T03:48:05;2.50;;;1.00;;
24407;SDS011;12542;50.924;4.516;2023-07-29T03:50:33;5.88;;;1.25;;
24407;SDS011;12542;50.924;4.516;2023-07-29T03:53:01;4.18;;;1.30;;
24407;SDS011;12542;50.924;4.516;2023-07-29T03:55:30;2.22;;;0.98;;
24407;SDS011;12542;50.924;4.516;2023-07-29T03:57:57;2.97;;;1.00;;
24407;SDS011;12542;50.924;4.516;2023-07-29T04:00:25;2.63;;;1.20;;
24407;SDS011;12542;50.924;4.516;2023-07-29T04:02:52;4.30;;;1.48;;
24407;SDS011;12542;50.924;4.516;2023-07-29T04:05:18;8.40;;;1.30;;
24407;SDS011;12542;50.924;4.516;2023-07-29T04:07:44;5.22;;;1.20;;
24407;SDS011;12542;50.924;4.516;2023-07-29T04:10:10;3.17;;;1.08;;
24407;SDS011;12542;50.924;4.516;2023-07-29T04:12:36;4.30;;;1.02;;
24407;SDS011;12542;50.924;4.516;2023-07-29T04:15:02;6.25;;;1.95;;
24407;SDS011;12542;50.924;4.516;2023-07-29T04:17:27;10.85;;;1.35;;
24407;SDS011;12542;50.924;4.516;2023-07-29T04:19:53;2.95;;;1.48;;
24407;SDS011;12542;50.924;4.516;2023-07-29T04:22:19;4.05;;;1.23;;
24407;SDS011;12542;50.924;4.516;2023-07-29T04:24:45;2.60;;;1.20;;
24407;SDS011;12542;50.924;4.516;2023-07-29T04:27:11;2.17;;;0.98;;
24407;SDS011;12542;50.924;4.516;2023-07-29T04:29:37;8.65;;;1.60;;
24407;SDS011;12542;50.924;4.516;2023-07-29T04:32:03;3.58;;;1.17;;
24407;SDS011;12542;50.924;4.516;2023-07-29T04:34:29;3.17;;;1.20;;
24407;SDS011;12542;50.924;4.516;2023-07-29T04:36:55;8.00;;;1.38;;
24407;SDS011;12542;50.924;4.516;2023-07-29T04:39:21;4.40;;;1.25;;
24407;SDS011;12542;50.924;4.516;2023-07-29T04:41:46;2.58;;;1.25;;
24407;SDS011;12542;50.924;4.516;2023-07-29T04:44:12;1.95;;;1.10;;
24407;SDS011;12542;50.924;4.516;2023-07-29T04:46:38;3.78;;;1.30;;
24407;SDS011;12542;50.924;4.516;2023-07-29T04:49:03;1.38;;;0.90;;
24407;SDS011;12542;50.924;4.516;2023-07-29T04:51:31;1.88;;;1.25;;
24407;SDS011;12542;50.924;4.516;2023-07-29T04:53:57;5.90;;;1.30;;
24407;SDS011;12542;50.924;4.516;2023-07-29T04:56:23;4.53;;;1.42;;
24407;SDS011;12542;50.924;4.516;2023-07-29T04:58:49;5.15;;;1.52;;
24407;SDS011;12542;50.924;4.516;2023-07-29T05:01:15;6.10;;;1.60;;
24407;SDS011;12542;50.924;4.516;2023-07-29T05:03:41;6.60;;;1.83;;
24407;SDS011;12542;50.924;4.516;2023-07-29T05:06:06;3.28;;;1.10;;
24407;SDS011;12542;50.924;4.516;2023-07-29T05:08:32;3.75;;;1.60;;
24407;SDS011;12542;50.924;4.516;2023-07-29T05:10:58;3.00;;;1.23;;
24407;SDS011;12542;50.924;4.516;2023-07-29T05:13:23;3.72;;;2.13;;
24407;SDS011;12542;50.924;4.516;2023-07-29T05:15:49;6.47;;;2.45;;
24407;SDS011;12542;50.924;4.516;2023-07-29T05:18:18;3.92;;;1.90;;
24407;SDS011;12542;50.924;4.516;2023-07-29T05:20:43;2.80;;;1.63;;
24407;SDS011;12542;50.924;4.516;2023-07-29T05:23:09;4.10;;;1.33;;
24407;SDS011;12542;50.924;4.516;2023-07-29T05:25:35;3.88;;;1.40;;
24407;SDS011;12542;50.924;4.516;2023-07-29T05:28:01;2.17;;;0.85;;
24407;SDS011;12542;50.924;4.516;2023-07-29T05:30:27;2.28;;;1.02;;
24407;SDS011;12542;50.924;4.516;2023-07-29T05:32:56;2.30;;;0.85;;
24407;SDS011;12542;50.924;4.516;2023-07-29T05:35:22;3.13;;;1.17;;
24407;SDS011;12542;50.924;4.516;2023-07-29T05:37:48;2.00;;;1.15;;
24407;SDS011;12542;50.924;4.516;2023-07-29T05:40:14;2.40;;;0.90;;
24407;SDS011;12542;50.924;4.516;2023-07-29T05:42:39;3.15;;;1.20;;
24407;SDS011;12542;50.924;4.516;2023-07-29T05:45:05;4.47;;;1.05;;
24407;SDS011;12542;50.924;4.516;2023-07-29T05:47:32;2.67;;;0.93;;
24407;SDS011;12542;50.924;4.516;2023-07-29T05:50:00;3.42;;;1.20;;
24407;SDS011;12542;50.924;4.516;2023-07-29T05:52:29;1.75;;;0.90;;
24407;SDS011;12542;50.924;4.516;2023-07-29T05:54:58;1.95;;;0.95;;
24407;SDS011;12542;50.924;4.516;2023-07-29T05:57:24;3.75;;;1.00;;
24407;SDS011;12542;50.924;4.516;2023-07-29T05:59:50;2.67;;;1.38;;
24407;SDS011;12542;50.924;4.516;2023-07-29T06:02:15;3.53;;;0.88;;
24407;SDS011;12542;50.924;4.516;2023-07-29T06:04:41;4.18;;;0.90;;
24407;SDS011;12542;50.924;4.516;2023-07-29T06:07:08;2.97;;;0.98;;
24407;SDS011;12542;50.924;4.516;2023-07-29T06:09:34;3.55;;;1.05;;
24407;SDS011;12542;50.924;4.516;2023-07-29T06:11:59;2.53;;;0.90;;
24407;SDS011;12542;50.924;4.516;2023-07-29T06:14:25;1.88;;;0.80;;
24407;SDS011;12542;50.924;4.516;2023-07-29T06:16:51;2.08;;;1.05;;
24407;SDS011;12542;50.924;4.516;2023-07-29T06:19:17;2.70;;;0.90;;
24407;SDS011;12542;50.924;4.516;2023-07-29T06:21:44;5.78;;;1.30;;
24407;SDS011;12542;50.924;4.516;2023-07-29T06:24:10;3.60;;;0.98;;
24407;SDS011;12542;50.924;4.516;2023-07-29T06:26:36;2.90;;;0.73;;
24407;SDS011;12542;50.924;4.516;2023-07-29T06:29:04;1.48;;;0.70;;
24407;SDS011;12542;50.924;4.516;2023-07-29T06:31:30;1.00;;;0.55;;
24407;SDS011;12542;50.924;4.516;2023-07-29T06:34:00;2.42;;;0.77;;
24407;SDS011;12542;50.924;4.516;2023-07-29T06:36:26;2.60;;;0.63;;
24407;SDS011;12542;50.924;4.516;2023-07-29T06:38:52;4.40;;;0.85;;
24407;SDS011;12542;50.924;4.516;2023-07-29T06:41:19;3.25;;;0.93;;
24407;SDS011;12542;50.924;4.516;2023-07-29T06:43:45;2.22;;;0.90;;
24407;SDS011;12542;50.924;4.516;2023-07-29T06:46:11;2.15;;;0.82;;
24407;SDS011;12542;50.924;4.516;2023-07-29T06:48:38;2.08;;;1.00;;
24407;SDS011;12542;50.924;4.516;2023-07-29T06:51:04;1.67;;;0.90;;
24407;SDS011;12542;50.924;4.516;2023-07-29T06:53:30;2.92;;;0.90;;
24407;SDS011;12542;50.924;4.516;2023-07-29T06:55:55;2.67;;;1.10;;
24407;SDS011;12542;50.924;4.516;2023-07-29T06:58:24;1.60;;;0.90;;
24407;SDS011;12542;50.924;4.516;2023-07-29T07:00:50;2.30;;;0.80;;
24407;SDS011;12542;50.924;4.516;2023-07-29T07:03:15;1.65;;;0.90;;
24407;SDS011;12542;50.924;4.516;2023-07-29T07:05:41;2.15;;;0.60;;
24407;SDS011;12542;50.924;4.516;2023-07-29T07:08:07;2.38;;;0.80;;
24407;SDS011;12542;50.924;4.516;2023-07-29T07:10:32;1.27;;;0.70;;
24407;SDS011;12542;50.924;4.516;2023-07-29T07:12:59;1.33;;;0.75;;
24407;SDS011;12542;50.924;4.516;2023-07-29T07:15:24;0.95;;;0.45;;
24407;SDS011;12542;50.924;4.516;2023-07-29T07:17:50;1.70;;;0.70;;
24407;SDS011;12542;50.924;4.516;2023-07-29T07:20:16;2.38;;;0.77;;
24407;SDS011;12542;50.924;4.516;2023-07-29T07:22:42;1.40;;;0.73;;
24407;SDS011;12542;50.924;4.516;2023-07-29T07:25:08;6.32;;;1.20;;
24407;SDS011;12542;50.924;4.516;2023-07-29T07:27:34;1.40;;;0.70;;
24407;SDS011;12542;50.924;4.516;2023-07-29T07:30:00;1.33;;;0.77;;
24407;SDS011;12542;50.924;4.516;2023-07-29T07:32:26;1.15;;;0.70;;
24407;SDS011;12542;50.924;4.516;2023-07-29T07:34:51;4.90;;;0.85;;
24407;SDS011;12542;50.924;4.516;2023-07-29T07:37:17;5.03;;;0.95;;
24407;SDS011;12542;50.924;4.516;2023-07-29T07:39:43;2.10;;;0.82;;
24407;SDS011;12542;50.924;4.516;2023-07-29T07:42:10;2.63;;;0.80;;
24407;SDS011;12542;50.924;4.516;2023-07-29T07:44:36;4.47;;;0.90;;
24407;SDS011;12542;50.924;4.516;2023-07-29T07:47:02;4.10;;;0.68;;
24407;SDS011;12542;50.924;4.516;2023-07-29T07:49:28;2.72;;;0.80;;
24407;SDS011;12542;50.924;4.516;2023-07-29T07:51:54;2.05;;;0.63;;
24407;SDS011;12542;50.924;4.516;2023-07-29T07:54:19;2.55;;;0.80;;
24407;SDS011;12542;50.924;4.516;2023-07-29T07:56:45;6.13;;;1.10;;
24407;SDS011;12542;50.924;4.516;2023-07-29T07:59:11;1.83;;;1.13;;
24407;SDS011;12542;50.924;4.516;2023-07-29T08:01:37;3.47;;;0.85;;
24407;SDS011;12542;50.924;4.516;2023-07-29T08:04:04;1.48;;;0.70;;
24407;SDS011;12542;50.924;4.516;2023-07-29T08:06:30;6.10;;;0.88;;
24407;SDS011;12542;50.924;4.516;2023-07-29T08:08:57;3.45;;;1.08;;
24407;SDS011;12542;50.924;4.516;2023-07-29T08:11:23;2.85;;;0.75;;
24407;SDS011;12542;50.924;4.516;2023-07-29T08:13:49;2.10;;;0.95;;
24407;SDS011;12542;50.924;4.516;2023-07-29T08:16:14;1.45;;;0.70;;
24407;SDS011;12542;50.924;4.516;2023-07-29T08:18:40;1.63;;;0.80;;
24407;SDS011;12542;50.924;4.516;2023-07-29T08:21:06;1.27;;;0.65;;
24407;SDS011;12542;50.924;4.516;2023-07-29T08:23:34;1.95;;;0.68;;
24407;SDS011;12542;50.924;4.516;2023-07-29T08:26:01;3.58;;;0.85;;
24407;SDS011;12542;50.924;4.516;2023-07-29T08:28:33;1.85;;;0.68;;
24407;SDS011;12542;50.924;4.516;2023-07-29T08:31:00;2.47;;;0.57;;
24407;SDS011;12542;50.924;4.516;2023-07-29T08:33:27;2.47;;;0.70;;
24407;SDS011;12542;50.924;4.516;2023-07-29T08:35:52;2.90;;;0.82;;
24407;SDS011;12542;50.924;4.516;2023-07-29T08:38:19;1.55;;;0.75;;
24407;SDS011;12542;50.924;4.516;2023-07-29T08:40:49;1.98;;;0.50;;
24407;SDS011;12542;50.924;4.516;2023-07-29T08:43:30;3.67;;;0.90;;
24407;SDS011;12542;50.924;4.516;2023-07-29T08:45:57;2.13;;;0.60;;
24407;SDS011;12542;50.924;4.516;2023-07-29T08:48:29;1.65;;;0.70;;
24407;SDS011;12542;50.924;4.516;2023-07-29T08:51:03;3.53;;;0.80;;
24407;SDS011;12542;50.924;4.516;2023-07-29T08:53:29;1.70;;;0.70;;
24407;SDS011;12542;50.924;4.516;2023-07-29T08:55:59;1.77;;;0.90;;
24407;SDS011;12542;50.924;4.516;2023-07-29T08:58:25;2.50;;;0.80;;
24407;SDS011;12542;50.924;4.516;2023-07-29T09:00:51;1.20;;;0.60;;
24407;SDS011;12542;50.924;4.516;2023-07-29T09:03:17;2.13;;;0.80;;
24407;SDS011;12542;50.924;4.516;2023-07-29T09:05:43;2.38;;;1.05;;
24407;SDS011;12542;50.924;4.516;2023-07-29T09:08:11;2.85;;;0.88;;
24407;SDS011;12542;50.924;4.516;2023-07-29T09:10:37;4.35;;;0.93;;
24407;SDS011;12542;50.924;4.516;2023-07-29T09:13:03;2.35;;;0.90;;
24407;SDS011;12542;50.924;4.516;2023-07-29T09:15:30;1.20;;;0.73;;
24407;SDS011;12542;50.924;4.516;2023-07-29T09:18:08;2.58;;;0.93;;
24407;SDS011;12542;50.924;4.516;2023-07-29T09:20:39;3.38;;;1.10;;
24407;SDS011;12542;50.924;4.516;2023-07-29T09:23:07;2.58;;;1.15;;
24407;SDS011;12542;50.924;4.516;2023-07-29T09:25:37;3.25;;;0.80;;
24407;SDS011;12542;50.924;4.516;2023-07-29T09:28:08;1.85;;;0.88;;
24407;SDS011;12542;50.924;4.516;2023-07-29T09:30:41;2.05;;;0.90;;
24407;SDS011;12542;50.924;4.516;2023-07-29T09:33:08;2.20;;;0.88;;
24407;SDS011;12542;50.924;4.516;2023-07-29T09:35:35;2.70;;;1.25;;
24407;SDS011;12542;50.924;4.516;2023-07-29T09:38:05;3.67;;;1.10;;
24407;SDS011;12542;50.924;4.516;2023-07-29T09:40:35;2.70;;;0.85;;
24407;SDS011;12542;50.924;4.516;2023-07-29T09:43:05;2.08;;;1.10;;
24407;SDS011;12542;50.924;4.516;2023-07-29T09:45:35;2.00;;;0.95;;
24407;SDS011;12542;50.924;4.516;2023-07-29T09:48:05;3.25;;;1.20;;
24407;SDS011;12542;50.924;4.516;2023-07-29T09:50:34;3.22;;;0.93;;
24407;SDS011;12542;50.924;4.516;2023-07-29T09:53:02;1.23;;;0.70;;
24407;SDS011;12542;50.924;4.516;2023-07-29T09:55:28;2.40;;;1.05;;
24407;SDS011;12542;50.924;4.516;2023-07-29T09:57:58;1.90;;;0.98;;
24407;SDS011;12542;50.924;4.516;2023-07-29T10:00:27;2.20;;;1.27;;
24407;SDS011;12542;50.924;4.516;2023-07-29T10:02:54;3.03;;;1.25;;
24407;SDS011;12542;50.924;4.516;2023-07-29T10:05:21;3.45;;;1.98;;
24407;SDS011;12542;50.924;4.516;2023-07-29T10:07:48;1.48;;;1.00;;
24407;SDS011;12542;50.924;4.516;2023-07-29T10:10:15;2.65;;;0.90;;
24407;SDS011;12542;50.924;4.516;2023-07-29T10:12:43;2.88;;;1.00;;
24407;SDS011;12542;50.924;4.516;2023-07-29T10:15:09;2.55;;;0.80;;
24407;SDS011;12542;50.924;4.516;2023-07-29T10:17:36;1.13;;;0.68;;
24407;SDS011;12542;50.924;4.516;2023-07-29T10:20:06;3.85;;;0.82;;
24407;SDS011;12542;50.924;4.516;2023-07-29T10:22:40;1.65;;;1.00;;
24407;SDS011;12542;50.924;4.516;2023-07-29T10:25:13;3.10;;;0.90;;
24407;SDS011;12542;50.924;4.516;2023-07-29T10:27:43;3.30;;;1.15;;
24407;SDS011;12542;50.924;4.516;2023-07-29T10:30:15;0.90;;;0.57;;
24407;SDS011;12542;50.924;4.516;2023-07-29T10:32:41;3.13;;;0.77;;
24407;SDS011;12542;50.924;4.516;2023-07-29T10:35:09;3.30;;;0.90;;
24407;SDS011;12542;50.924;4.516;2023-07-29T10:37:36;3.38;;;1.02;;
24407;SDS011;12542;50.924;4.516;2023-07-29T10:40:05;1.92;;;0.90;;
24407;SDS011;12542;50.924;4.516;2023-07-29T10:42:32;1.23;;;0.60;;
24407;SDS011;12542;50.924;4.516;2023-07-29T10:44:58;2.75;;;1.17;;
24407;SDS011;12542;50.924;4.516;2023-07-29T10:47:24;2.25;;;0.80;;
24407;SDS011;12542;50.924;4.516;2023-07-29T10:49:52;2.72;;;1.00;;
24407;SDS011;12542;50.924;4.516;2023-07-29T10:52:28;1.98;;;1.10;;
24407;SDS011;12542;50.924;4.516;2023-07-29T10:55:04;5.57;;;1.75;;
24407;SDS011;12542;50.924;4.516;2023-07-29T10:57:51;10.57;;;1.85;;
24407;SDS011;12542;50.924;4.516;2023-07-29T11:00:19;4.40;;;1.60;;
24407;SDS011;12542;50.924;4.516;2023-07-29T11:02:56;5.32;;;1.88;;
24407;SDS011;12542;50.924;4.516;2023-07-29T11:05:26;5.35;;;1.90;;
24407;SDS011;12542;50.924;4.516;2023-07-29T11:08:15;7.10;;;1.50;;
24407;SDS011;12542;50.924;4.516;2023-07-29T11:10:43;6.05;;;1.75;;
24407;SDS011;12542;50.924;4.516;2023-07-29T11:13:09;4.80;;;1.73;;
24407;SDS011;12542;50.924;4.516;2023-07-29T11:15:36;2.70;;;1.70;;
24407;SDS011;12542;50.924;4.516;2023-07-29T11:18:04;2.55;;;1.73;;
24407;SDS011;12542;50.924;4.516;2023-07-29T11:20:32;3.72;;;1.63;;
24407;SDS011;12542;50.924;4.516;2023-07-29T11:22:59;3.00;;;1.90;;
24407;SDS011;12542;50.924;4.516;2023-07-29T11:25:26;3.20;;;2.10;;
24407;SDS011;12542;50.924;4.516;2023-07-29T11:27:54;4.18;;;2.15;;
24407;SDS011;12542;50.924;4.516;2023-07-29T11:30:21;2.72;;;2.15;;
24407;SDS011;12542;50.924;4.516;2023-07-29T11:32:54;4.28;;;2.45;;
24407;SDS011;12542;50.924;4.516;2023-07-29T11:35:21;3.10;;;2.13;;
24407;SDS011;12542;50.924;4.516;2023-07-29T11:37:48;4.22;;;2.33;;
24407;SDS011;12542;50.924;4.516;2023-07-29T11:40:18;5.47;;;2.03;;
24407;SDS011;12542;50.924;4.516;2023-07-29T11:42:46;4.00;;;1.73;;
24407;SDS011;12542;50.924;4.516;2023-07-29T11:45:13;3.10;;;1.27;;
24407;SDS011;12542;50.924;4.516;2023-07-29T11:47:39;2.00;;;1.20;;
24407;SDS011;12542;50.924;4.516;2023-07-29T11:50:06;2.60;;;1.42;;
24407;SDS011;12542;50.924;4.516;2023-07-29T11:52:36;2.00;;;1.20;;
24407;SDS011;12542;50.924;4.516;2023-07-29T11:55:04;2.42;;;1.30;;
24407;SDS011;12542;50.924;4.516;2023-07-29T11:57:30;1.45;;;1.00;;
24407;SDS011;12542;50.924;4.516;2023-07-29T11:59:59;2.92;;;1.52;;
24407;SDS011;12542;50.924;4.516;2023-07-29T12:02:31;2.35;;;1.20;;
24407;SDS011;12542;50.924;4.516;2023-07-29T12:04:58;2.92;;;1.20;;
24407;SDS011;12542;50.924;4.516;2023-07-29T12:07:24;3.10;;;1.20;;
24407;SDS011;12542;50.924;4.516;2023-07-29T12:09:50;2.42;;;1.30;;
24407;SDS011;12542;50.924;4.516;2023-07-29T12:12:17;2.42;;;1.30;;
24407;SDS011;12542;50.924;4.516;2023-07-29T12:14:46;3.97;;;1.80;;
24407;SDS011;12542;50.924;4.516;2023-07-29T12:17:12;3.88;;;1.52;;
24407;SDS011;12542;50.924;4.516;2023-07-29T12:19:38;2.90;;;1.45;;
24407;SDS011;12542;50.924;4.516;2023-07-29T12:22:06;4.05;;;2.20;;
24407;SDS011;12542;50.924;4.516;2023-07-29T12:24:33;6.50;;;2.00;;
24407;SDS011;12542;50.924;4.516;2023-07-29T12:27:00;5.43;;;2.40;;
24407;SDS011;12542;50.924;4.516;2023-07-29T12:29:26;15.38;;;3.30;;
24407;SDS011;12542;50.924;4.516;2023-07-29T12:31:57;15.05;;;3.53;;
24407;SDS011;12542;50.924;4.516;2023-07-29T12:34:25;13.05;;;2.85;;
24407;SDS011;12542;50.924;4.516;2023-07-29T12:36:52;5.03;;;2.38;;
24407;SDS011;12542;50.924;4.516;2023-07-29T12:39:20;4.28;;;2.22;;
24407;SDS011;12542;50.924;4.516;2023-07-29T12:41:49;6.32;;;2.63;;
24407;SDS011;12542;50.924;4.516;2023-07-29T12:44:16;5.22;;;2.30;;
24407;SDS011;12542;50.924;4.516;2023-07-29T12:46:42;5.13;;;2.03;;
24407;SDS011;12542;50.924;4.516;2023-07-29T12:49:08;3.85;;;1.75;;
24407;SDS011;12542;50.924;4.516;2023-07-29T12:51:34;5.90;;;2.10;;
24407;SDS011;12542;50.924;4.516;2023-07-29T12:54:01;3.25;;;1.90;;
24407;SDS011;12542;50.924;4.516;2023-07-29T12:56:28;3.15;;;1.92;;
24407;SDS011;12542;50.924;4.516;2023-07-29T12:58:57;5.30;;;1.83;;
24407;SDS011;12542;50.924;4.516;2023-07-29T13:01:23;3.65;;;2.40;;
24407;SDS011;12542;50.924;4.516;2023-07-29T13:03:49;2.95;;;1.90;;
24407;SDS011;12542;50.924;4.516;2023-07-29T13:06:15;2.35;;;2.00;;
24407;SDS011;12542;50.924;4.516;2023-07-29T13:08:41;5.53;;;2.35;;
24407;SDS011;12542;50.924;4.516;2023-07-29T13:11:10;3.05;;;1.90;;
24407;SDS011;12542;50.924;4.516;2023-07-29T13:13:35;1.92;;;1.50;;
24407;SDS011;12542;50.924;4.516;2023-07-29T13:16:03;2.67;;;1.80;;
24407;SDS011;12542;50.924;4.516;2023-07-29T13:18:29;3.10;;;1.75;;
24407;SDS011;12542;50.924;4.516;2023-07-29T13:20:57;3.63;;;1.40;;
24407;SDS011;12542;50.924;4.516;2023-07-29T13:23:23;2.22;;;1.38;;
24407;SDS011;12542;50.924;4.516;2023-07-29T13:25:49;2.38;;;1.30;;
24407;SDS011;12542;50.924;4.516;2023-07-29T13:28:15;3.65;;;1.52;;
24407;SDS011;12542;50.924;4.516;2023-07-29T13:30:41;1.83;;;0.90;;
24407;SDS011;12542;50.924;4.516;2023-07-29T13:33:07;4.07;;;1.42;;
24407;SDS011;12542;50.924;4.516;2023-07-29T13:35:33;3.47;;;1.95;;
24407;SDS011;12542;50.924;4.516;2023-07-29T13:38:02;2.33;;;1.45;;
24407;SDS011;12542;50.924;4.516;2023-07-29T13:40:28;3.42;;;2.00;;
24407;SDS011;12542;50.924;4.516;2023-07-29T13:42:54;2.38;;;1.40;;
24407;SDS011;12542;50.924;4.516;2023-07-29T13:45:20;1.90;;;1.48;;
24407;SDS011;12542;50.924;4.516;2023-07-29T13:47:46;1.73;;;1.23;;
24407;SDS011;12542;50.924;4.516;2023-07-29T13:50:13;3.92;;;1.27;;
24407;SDS011;12542;50.924;4.516;2023-07-29T13:52:40;4.07;;;1.40;;
24407;SDS011;12542;50.924;4.516;2023-07-29T13:55:06;4.88;;;1.27;;
24407;SDS011;12542;50.924;4.516;2023-07-29T13:57:32;3.05;;;1.55;;
24407;SDS011;12542;50.924;4.516;2023-07-29T13:59:58;3.75;;;1.48;;
24407;SDS011;12542;50.924;4.516;2023-07-29T14:02:24;1.77;;;1.10;;
24407;SDS011;12542;50.924;4.516;2023-07-29T14:04:52;2.65;;;1.45;;
24407;SDS011;12542;50.924;4.516;2023-07-29T14:07:18;1.98;;;1.33;;
24407;SDS011;12542;50.924;4.516;2023-07-29T14:09:44;1.42;;;1.02;;
24407;SDS011;12542;50.924;4.516;2023-07-29T14:12:10;1.90;;;1.10;;
24407;SDS011;12542;50.924;4.516;2023-07-29T14:14:37;1.80;;;1.08;;
24407;SDS011;12542;50.924;4.516;2023-07-29T14:17:03;1.35;;;1.10;;
24407;SDS011;12542;50.924;4.516;2023-07-29T14:19:29;1.90;;;1.30;;
24407;SDS011;12542;50.924;4.516;2023-07-29T14:21:58;2.60;;;1.38;;
24407;SDS011;12542;50.924;4.516;2023-07-29T14:24:24;3.40;;;1.20;;
24407;SDS011;12542;50.924;4.516;2023-07-29T14:26:49;1.83;;;0.88;;
24407;SDS011;12542;50.924;4.516;2023-07-29T14:29:15;1.83;;;1.13;;
24407;SDS011;12542;50.924;4.516;2023-07-29T14:31:40;1.42;;;0.77;;
24407;SDS011;12542;50.924;4.516;2023-07-29T14:34:06;1.58;;;0.95;;
24407;SDS011;12542;50.924;4.516;2023-07-29T14:36:32;1.30;;;0.80;;
24407;SDS011;12542;50.924;4.516;2023-07-29T14:38:57;1.48;;;0.80;;
24407;SDS011;12542;50.924;4.516;2023-07-29T14:41:23;1.70;;;1.00;;
24407;SDS011;12542;50.924;4.516;2023-07-29T14:43:52;1.63;;;1.00;;
24407;SDS011;12542;50.924;4.516;2023-07-29T14:46:17;2.35;;;0.90;;
24407;SDS011;12542;50.924;4.516;2023-07-29T14:48:43;1.70;;;0.82;;
24407;SDS011;12542;50.924;4.516;2023-07-29T14:51:09;1.30;;;0.75;;
24407;SDS011;12542;50.924;4.516;2023-07-29T14:53:34;1.65;;;0.80;;
24407;SDS011;12542;50.924;4.516;2023-07-29T14:56:00;1.52;;;0.90;;
24407;SDS011;12542;50.924;4.516;2023-07-29T14:58:25;1.40;;;0.80;;